MSC Armonia — H8EW — position and weather

sailwx.info

Track history (hours):
 
Tides and Currents Weather Stations Pressure Air Temp Water Temp Dewpoint Dewpoint Depression Visibility Wind Speed Wind Dir Waves Ship Positions

MSC Armonia

Operator: Mediterranean Shipping Company

Last reported at 2018-Jun-15 23:34 UTC. Time now 2018-Jun-19 20:04 UTC.
Position N 20°32' W 086°57'.

Length 275 m; draft 6.8 m.

Type: Ship. MMSI: 357281000.

Date/timePositionNaut miles runAvg speedWind from/ knotsBaromVisibWave heightAir tempDewpointWater temp
2018-Jun-15 23:34N 20°32' W 086°57'112.0
2018-Jun-15 23:30N 20°31' W 086°57'0 0.5
2018-Jun-15 22:59N 20°31' W 086°57'0 0.0
2018-Jun-15 22:29N 20°31' W 086°57'0 0.0
2018-Jun-15 21:56N 20°31' W 086°57'0 0.0
2018-Jun-15 21:26N 20°31' W 086°57'0 0.0
2018-Jun-15 20:59N 20°31' W 086°57'0 0.0
2018-Jun-15 20:29N 20°31' W 086°57'0 0.0
2018-Jun-15 19:59N 20°31' W 086°57'0 0.0
2018-Jun-15 19:29N 20°31' W 086°57'0 0.0
2018-Jun-15 18:59N 20°31' W 086°57'0 0.0
2018-Jun-15 18:29N 20°31' W 086°57'0 0.0
2018-Jun-15 17:59N 20°31' W 086°57'0 0.0
2018-Jun-15 17:29N 20°31' W 086°57'0 0.0
2018-Jun-15 16:56N 20°31' W 086°57'0 0.0
2018-Jun-15 16:29N 20°31' W 086°57'0 0.0
2018-Jun-15 15:59N 20°31' W 086°57'0 0.0
2018-Jun-15 15:29N 20°31' W 086°57'0 0.0
2018-Jun-15 14:59N 20°31' W 086°57'0 0.0
2018-Jun-15 14:29N 20°31' W 086°57'0 0.0
2018-Jun-15 13:59N 20°31' W 086°57'0 0.9
2018-Jun-15 13:30N 20°31' W 086°57'4 8.3
2018-Jun-15 13:00N 20°35' W 086°57'  
2018-Jun-08 21:09N 20°34' W 086°57'315.4
2018-Jun-08 20:58N 20°31' W 086°57'1 1.2
2018-Jun-08 20:30N 20°31' W 086°57'0 0.0
2018-Jun-08 19:57N 20°31' W 086°57'0 0.0
2018-Jun-08 19:30N 20°31' W 086°57'0 0.0
2018-Jun-08 19:00N 20°31' W 086°57'0 0.0
2018-Jun-08 18:30N 20°31' W 086°57'0 0.0
2018-Jun-08 18:00N 20°31' W 086°57'0 0.0
2018-Jun-08 17:30N 20°31' W 086°57'0 0.0
2018-Jun-08 17:00N 20°31' W 086°57'0 0.0
2018-Jun-08 16:30N 20°31' W 086°57'0 0.0
2018-Jun-08 16:00N 20°31' W 086°57'0 0.0
2018-Jun-08 15:30N 20°31' W 086°57'0 0.0
2018-Jun-08 14:57N 20°31' W 086°57'0 0.0
2018-Jun-08 14:24N 20°31' W 086°57'0 0.0
2018-Jun-08 14:00N 20°31' W 086°57'0 0.0
2018-Jun-08 13:30N 20°31' W 086°57'0 0.0
2018-Jun-08 13:00N 20°31' W 086°57'0 0.0
2018-Jun-08 12:30N 20°31' W 086°57'0 0.0
2018-Jun-08 11:57N 20°31' W 086°57'0 0.0
2018-Jun-08 11:27N 20°31' W 086°57'0 0.5
2018-Jun-08 11:01N 20°31' W 086°57'2 3.4
2018-Jun-08 10:30N 20°30' W 086°59'4 7.6
2018-Jun-08 10:00N 20°27' W 087°02'  
Track history (hours):
 
Tides and Currents Weather Stations Pressure Air Temp Water Temp Dewpoint Dewpoint Depression Visibility Wind Speed Wind Dir Waves Ship Positions

MSC Armonia

Operator: Mediterranean Shipping Company

Last reported at 2018-Jun-15 23:34 UTC. Time now 2018-Jun-19 20:04 UTC.
Position N 20°32' W 086°57'.

Length 275 m; draft 6.8 m.

Type: Ship. MMSI: 357281000.

Date/timePositionNaut miles runAvg speedWind from/ knotsBaromVisibWave heightAir tempDewpointWater temp
2018-Jun-15 23:34N 20°32' W 086°57'112.0
2018-Jun-15 23:30N 20°31' W 086°57'0 0.5
2018-Jun-15 22:59N 20°31' W 086°57'0 0.0
2018-Jun-15 22:29N 20°31' W 086°57'0 0.0
2018-Jun-15 21:56N 20°31' W 086°57'0 0.0
2018-Jun-15 21:26N 20°31' W 086°57'0 0.0
2018-Jun-15 20:59N 20°31' W 086°57'0 0.0
2018-Jun-15 20:29N 20°31' W 086°57'0 0.0
2018-Jun-15 19:59N 20°31' W 086°57'0 0.0
2018-Jun-15 19:29N 20°31' W 086°57'0 0.0
2018-Jun-15 18:59N 20°31' W 086°57'0 0.0
2018-Jun-15 18:29N 20°31' W 086°57'0 0.0
2018-Jun-15 17:59N 20°31' W 086°57'0 0.0
2018-Jun-15 17:29N 20°31' W 086°57'0 0.0
2018-Jun-15 16:56N 20°31' W 086°57'0 0.0
2018-Jun-15 16:29N 20°31' W 086°57'0 0.0
2018-Jun-15 15:59N 20°31' W 086°57'0 0.0
2018-Jun-15 15:29N 20°31' W 086°57'0 0.0
2018-Jun-15 14:59N 20°31' W 086°57'0 0.0
2018-Jun-15 14:29N 20°31' W 086°57'0 0.0
2018-Jun-15 13:59N 20°31' W 086°57'0 0.9
2018-Jun-15 13:30N 20°31' W 086°57'4 8.3
2018-Jun-15 13:00N 20°35' W 086°57'  
2018-Jun-08 21:09N 20°34' W 086°57'315.4
2018-Jun-08 20:58N 20°31' W 086°57'1 1.2
2018-Jun-08 20:30N 20°31' W 086°57'0 0.0
2018-Jun-08 19:57N 20°31' W 086°57'0 0.0
2018-Jun-08 19:30N 20°31' W 086°57'0 0.0
2018-Jun-08 19:00N 20°31' W 086°57'0 0.0
2018-Jun-08 18:30N 20°31' W 086°57'0 0.0
2018-Jun-08 18:00N 20°31' W 086°57'0 0.0
2018-Jun-08 17:30N 20°31' W 086°57'0 0.0
2018-Jun-08 17:00N 20°31' W 086°57'0 0.0
2018-Jun-08 16:30N 20°31' W 086°57'0 0.0
2018-Jun-08 16:00N 20°31' W 086°57'0 0.0
2018-Jun-08 15:30N 20°31' W 086°57'0 0.0
2018-Jun-08 14:57N 20°31' W 086°57'0 0.0
2018-Jun-08 14:24N 20°31' W 086°57'0 0.0
2018-Jun-08 14:00N 20°31' W 086°57'0 0.0
2018-Jun-08 13:30N 20°31' W 086°57'0 0.0
2018-Jun-08 13:00N 20°31' W 086°57'0 0.0
2018-Jun-08 12:30N 20°31' W 086°57'0 0.0
2018-Jun-08 11:57N 20°31' W 086°57'0 0.0
2018-Jun-08 11:27N 20°31' W 086°57'0 0.5
2018-Jun-08 11:01N 20°31' W 086°57'2 3.4
2018-Jun-08 10:30N 20°30' W 086°59'4 7.6
2018-Jun-08 10:00N 20°27' W 087°02'  

Dump ship's entire track history